sensor_id;sensor_type;location;lat;lon;timestamp;P1;durP1;ratioP1;P2;durP2;ratioP2
12603;SDS011;6367;52.508;13.284;2023-01-04T00:00:30;9.67;;;7.27;;
12603;SDS011;6367;52.508;13.284;2023-01-04T00:02:55;8.50;;;7.00;;
12603;SDS011;6367;52.508;13.284;2023-01-04T00:05:21;11.13;;;7.90;;
12603;SDS011;6367;52.508;13.284;2023-01-04T00:07:47;10.43;;;8.23;;
12603;SDS011;6367;52.508;13.284;2023-01-04T00:10:12;10.20;;;7.03;;
12603;SDS011;6367;52.508;13.284;2023-01-04T00:12:38;9.97;;;6.67;;
12603;SDS011;6367;52.508;13.284;2023-01-04T00:15:04;8.20;;;7.40;;
12603;SDS011;6367;52.508;13.284;2023-01-04T00:17:30;7.90;;;6.33;;
12603;SDS011;6367;52.508;13.284;2023-01-04T00:19:55;7.80;;;6.53;;
12603;SDS011;6367;52.508;13.284;2023-01-04T00:22:21;9.10;;;7.70;;
12603;SDS011;6367;52.508;13.284;2023-01-04T00:24:47;6.37;;;5.73;;
12603;SDS011;6367;52.508;13.284;2023-01-04T00:27:12;7.63;;;6.90;;
12603;SDS011;6367;52.508;13.284;2023-01-04T00:29:38;8.43;;;7.10;;
12603;SDS011;6367;52.508;13.284;2023-01-04T00:32:03;9.13;;;7.50;;
12603;SDS011;6367;52.508;13.284;2023-01-04T00:34:29;6.67;;;5.70;;
12603;SDS011;6367;52.508;13.284;2023-01-04T00:36:55;7.07;;;6.37;;
12603;SDS011;6367;52.508;13.284;2023-01-04T00:39:20;7.60;;;5.87;;
12603;SDS011;6367;52.508;13.284;2023-01-04T00:41:50;7.03;;;6.13;;
12603;SDS011;6367;52.508;13.284;2023-01-04T00:44:17;8.17;;;6.77;;
12603;SDS011;6367;52.508;13.284;2023-01-04T00:46:46;7.60;;;6.47;;
12603;SDS011;6367;52.508;13.284;2023-01-04T00:49:12;6.20;;;5.60;;
12603;SDS011;6367;52.508;13.284;2023-01-04T00:51:39;7.00;;;6.17;;
12603;SDS011;6367;52.508;13.284;2023-01-04T00:54:06;8.30;;;6.10;;
12603;SDS011;6367;52.508;13.284;2023-01-04T00:56:35;7.27;;;5.53;;
12603;SDS011;6367;52.508;13.284;2023-01-04T00:59:01;6.33;;;5.60;;
12603;SDS011;6367;52.508;13.284;2023-01-04T01:01:28;5.67;;;5.17;;
12603;SDS011;6367;52.508;13.284;2023-01-04T01:03:55;7.20;;;6.27;;
12603;SDS011;6367;52.508;13.284;2023-01-04T01:06:26;6.57;;;5.50;;
12603;SDS011;6367;52.508;13.284;2023-01-04T01:08:53;6.60;;;5.30;;
12603;SDS011;6367;52.508;13.284;2023-01-04T01:11:19;7.90;;;5.50;;
12603;SDS011;6367;52.508;13.284;2023-01-04T01:13:46;5.90;;;5.33;;
12603;SDS011;6367;52.508;13.284;2023-01-04T01:16:14;6.17;;;5.57;;
12603;SDS011;6367;52.508;13.284;2023-01-04T01:18:42;7.00;;;5.40;;
12603;SDS011;6367;52.508;13.284;2023-01-04T01:21:10;6.30;;;5.70;;
12603;SDS011;6367;52.508;13.284;2023-01-04T01:23:38;6.60;;;5.60;;
12603;SDS011;6367;52.508;13.284;2023-01-04T01:26:06;5.80;;;5.30;;
12603;SDS011;6367;52.508;13.284;2023-01-04T01:28:33;5.73;;;5.23;;
12603;SDS011;6367;52.508;13.284;2023-01-04T01:31:04;6.53;;;5.07;;
12603;SDS011;6367;52.508;13.284;2023-01-04T01:33:31;8.10;;;6.00;;
12603;SDS011;6367;52.508;13.284;2023-01-04T01:36:00;7.13;;;5.60;;
12603;SDS011;6367;52.508;13.284;2023-01-04T01:38:27;6.47;;;5.87;;
12603;SDS011;6367;52.508;13.284;2023-01-04T01:40:52;5.83;;;5.17;;
12603;SDS011;6367;52.508;13.284;2023-01-04T01:43:19;7.20;;;5.27;;
12603;SDS011;6367;52.508;13.284;2023-01-04T01:45:46;5.20;;;4.70;;
12603;SDS011;6367;52.508;13.284;2023-01-04T01:48:17;5.37;;;4.87;;
12603;SDS011;6367;52.508;13.284;2023-01-04T01:50:49;6.97;;;6.23;;
12603;SDS011;6367;52.508;13.284;2023-01-04T01:53:25;6.13;;;5.53;;
12603;SDS011;6367;52.508;13.284;2023-01-04T01:55:54;5.63;;;5.13;;
12603;SDS011;6367;52.508;13.284;2023-01-04T01:58:23;5.40;;;4.90;;
12603;SDS011;6367;52.508;13.284;2023-01-04T02:00:56;6.17;;;4.97;;
12603;SDS011;6367;52.508;13.284;2023-01-04T02:03:22;9.17;;;5.43;;
12603;SDS011;6367;52.508;13.284;2023-01-04T02:05:54;6.20;;;4.80;;
12603;SDS011;6367;52.508;13.284;2023-01-04T02:08:22;5.00;;;4.50;;
12603;SDS011;6367;52.508;13.284;2023-01-04T02:10:49;4.90;;;4.50;;
12603;SDS011;6367;52.508;13.284;2023-01-04T02:13:16;5.50;;;5.00;;
12603;SDS011;6367;52.508;13.284;2023-01-04T02:15:55;5.40;;;4.73;;
12603;SDS011;6367;52.508;13.284;2023-01-04T02:18:32;8.77;;;5.10;;
12603;SDS011;6367;52.508;13.284;2023-01-04T02:21:07;6.60;;;4.53;;
12603;SDS011;6367;52.508;13.284;2023-01-04T02:23:46;5.63;;;5.10;;
12603;SDS011;6367;52.508;13.284;2023-01-04T02:29:25;5.63;;;4.70;;
12603;SDS011;6367;52.508;13.284;2023-01-04T02:31:55;5.57;;;4.43;;
12603;SDS011;6367;52.508;13.284;2023-01-04T02:39:56;7.87;;;5.30;;
12603;SDS011;6367;52.508;13.284;2023-01-04T02:42:42;7.53;;;4.60;;
12603;SDS011;6367;52.508;13.284;2023-01-04T02:45:30;4.83;;;4.43;;
12603;SDS011;6367;52.508;13.284;2023-01-04T02:48:00;8.03;;;4.97;;
12603;SDS011;6367;52.508;13.284;2023-01-04T02:50:51;5.40;;;4.63;;
12603;SDS011;6367;52.508;13.284;2023-01-04T02:53:24;4.53;;;4.13;;
12603;SDS011;6367;52.508;13.284;2023-01-04T02:56:18;5.63;;;4.70;;
12603;SDS011;6367;52.508;13.284;2023-01-04T03:02:01;7.40;;;4.30;;
12603;SDS011;6367;52.508;13.284;2023-01-04T03:13:08;5.23;;;4.23;;
12603;SDS011;6367;52.508;13.284;2023-01-04T03:15:39;6.47;;;4.87;;
12603;SDS011;6367;52.508;13.284;2023-01-04T03:20:44;5.53;;;5.03;;
12603;SDS011;6367;52.508;13.284;2023-01-04T03:23:13;5.40;;;4.90;;
12603;SDS011;6367;52.508;13.284;2023-01-04T03:28:50;5.80;;;4.77;;
12603;SDS011;6367;52.508;13.284;2023-01-04T03:31:41;6.97;;;5.30;;
12603;SDS011;6367;52.508;13.284;2023-01-04T03:34:35;6.83;;;6.10;;
12603;SDS011;6367;52.508;13.284;2023-01-04T03:43:00;5.50;;;4.50;;
12603;SDS011;6367;52.508;13.284;2023-01-04T03:45:50;7.00;;;4.30;;
12603;SDS011;6367;52.508;13.284;2023-01-04T03:48:43;6.93;;;4.40;;
12603;SDS011;6367;52.508;13.284;2023-01-04T03:51:31;6.33;;;5.73;;
12603;SDS011;6367;52.508;13.284;2023-01-04T03:54:02;7.10;;;5.50;;
12603;SDS011;6367;52.508;13.284;2023-01-04T03:56:41;9.60;;;5.40;;
12603;SDS011;6367;52.508;13.284;2023-01-04T03:59:08;8.23;;;5.03;;
12603;SDS011;6367;52.508;13.284;2023-01-04T04:01:35;5.47;;;4.87;;
12603;SDS011;6367;52.508;13.284;2023-01-04T04:04:02;4.73;;;4.33;;
12603;SDS011;6367;52.508;13.284;2023-01-04T04:06:46;7.43;;;5.57;;
12603;SDS011;6367;52.508;13.284;2023-01-04T04:09:30;6.80;;;5.20;;
12603;SDS011;6367;52.508;13.284;2023-01-04T04:11:56;6.80;;;5.33;;
12603;SDS011;6367;52.508;13.284;2023-01-04T04:14:22;6.60;;;4.93;;
12603;SDS011;6367;52.508;13.284;2023-01-04T04:16:48;6.50;;;5.47;;
12603;SDS011;6367;52.508;13.284;2023-01-04T04:19:15;6.00;;;5.10;;
12603;SDS011;6367;52.508;13.284;2023-01-04T04:21:40;5.83;;;5.00;;
12603;SDS011;6367;52.508;13.284;2023-01-04T04:24:06;5.63;;;4.60;;
12603;SDS011;6367;52.508;13.284;2023-01-04T04:26:39;5.23;;;4.73;;
12603;SDS011;6367;52.508;13.284;2023-01-04T04:29:05;6.90;;;5.20;;
12603;SDS011;6367;52.508;13.284;2023-01-04T04:31:31;4.87;;;4.37;;
12603;SDS011;6367;52.508;13.284;2023-01-04T04:33:56;6.03;;;5.10;;
12603;SDS011;6367;52.508;13.284;2023-01-04T04:36:22;7.60;;;5.97;;
12603;SDS011;6367;52.508;13.284;2023-01-04T04:38:48;6.63;;;4.60;;
12603;SDS011;6367;52.508;13.284;2023-01-04T04:41:13;6.20;;;4.60;;
12603;SDS011;6367;52.508;13.284;2023-01-04T04:43:58;5.10;;;4.60;;
12603;SDS011;6367;52.508;13.284;2023-01-04T04:46:24;5.30;;;4.80;;
12603;SDS011;6367;52.508;13.284;2023-01-04T04:48:49;6.60;;;4.87;;
12603;SDS011;6367;52.508;13.284;2023-01-04T04:51:15;6.20;;;5.60;;
12603;SDS011;6367;52.508;13.284;2023-01-04T04:53:41;7.40;;;5.00;;
12603;SDS011;6367;52.508;13.284;2023-01-04T04:56:07;8.00;;;4.80;;
12603;SDS011;6367;52.508;13.284;2023-01-04T04:58:33;5.30;;;4.80;;
12603;SDS011;6367;52.508;13.284;2023-01-04T05:01:00;7.20;;;5.03;;
12603;SDS011;6367;52.508;13.284;2023-01-04T05:03:25;5.10;;;4.63;;
12603;SDS011;6367;52.508;13.284;2023-01-04T05:05:51;5.60;;;4.83;;
12603;SDS011;6367;52.508;13.284;2023-01-04T05:08:17;5.33;;;4.63;;
12603;SDS011;6367;52.508;13.284;2023-01-04T05:10:43;8.27;;;4.67;;
12603;SDS011;6367;52.508;13.284;2023-01-04T05:13:09;5.20;;;4.70;;
12603;SDS011;6367;52.508;13.284;2023-01-04T05:15:44;4.93;;;4.37;;
12603;SDS011;6367;52.508;13.284;2023-01-04T05:18:12;8.37;;;4.50;;
12603;SDS011;6367;52.508;13.284;2023-01-04T05:20:39;4.53;;;4.13;;
12603;SDS011;6367;52.508;13.284;2023-01-04T05:23:05;4.53;;;3.83;;
12603;SDS011;6367;52.508;13.284;2023-01-04T05:25:31;4.73;;;4.33;;
12603;SDS011;6367;52.508;13.284;2023-01-04T05:27:58;6.90;;;4.90;;
12603;SDS011;6367;52.508;13.284;2023-01-04T05:30:24;7.47;;;5.07;;
12603;SDS011;6367;52.508;13.284;2023-01-04T05:33:08;5.50;;;4.60;;
12603;SDS011;6367;52.508;13.284;2023-01-04T05:35:34;5.30;;;4.73;;
12603;SDS011;6367;52.508;13.284;2023-01-04T05:38:00;4.70;;;4.23;;
12603;SDS011;6367;52.508;13.284;2023-01-04T05:40:26;5.13;;;4.43;;
12603;SDS011;6367;52.508;13.284;2023-01-04T05:42:52;9.53;;;4.43;;
12603;SDS011;6367;52.508;13.284;2023-01-04T05:45:17;5.33;;;4.17;;
12603;SDS011;6367;52.508;13.284;2023-01-04T05:47:45;6.40;;;4.43;;
12603;SDS011;6367;52.508;13.284;2023-01-04T05:50:14;4.40;;;4.00;;
12603;SDS011;6367;52.508;13.284;2023-01-04T05:52:40;5.33;;;4.80;;
12603;SDS011;6367;52.508;13.284;2023-01-04T05:55:06;5.53;;;4.17;;
12603;SDS011;6367;52.508;13.284;2023-01-04T05:57:32;6.07;;;4.50;;
12603;SDS011;6367;52.508;13.284;2023-01-04T05:59:57;4.80;;;4.17;;
12603;SDS011;6367;52.508;13.284;2023-01-04T06:02:24;5.03;;;4.53;;
12603;SDS011;6367;52.508;13.284;2023-01-04T06:04:51;5.60;;;4.63;;
12603;SDS011;6367;52.508;13.284;2023-01-04T06:07:17;6.07;;;4.80;;
12603;SDS011;6367;52.508;13.284;2023-01-04T06:09:43;7.33;;;4.50;;
12603;SDS011;6367;52.508;13.284;2023-01-04T06:12:09;4.40;;;4.00;;
12603;SDS011;6367;52.508;13.284;2023-01-04T06:14:35;6.27;;;3.77;;
12603;SDS011;6367;52.508;13.284;2023-01-04T06:17:00;5.23;;;4.30;;
12603;SDS011;6367;52.508;13.284;2023-01-04T06:19:26;5.47;;;4.17;;
12603;SDS011;6367;52.508;13.284;2023-01-04T06:21:52;4.33;;;3.83;;
12603;SDS011;6367;52.508;13.284;2023-01-04T06:24:18;7.03;;;4.30;;
12603;SDS011;6367;52.508;13.284;2023-01-04T06:26:44;4.07;;;3.77;;
12603;SDS011;6367;52.508;13.284;2023-01-04T06:29:10;4.07;;;3.33;;
12603;SDS011;6367;52.508;13.284;2023-01-04T06:31:35;8.30;;;4.47;;
12603;SDS011;6367;52.508;13.284;2023-01-04T06:34:01;3.70;;;3.40;;
12603;SDS011;6367;52.508;13.284;2023-01-04T06:36:27;4.93;;;4.13;;
12603;SDS011;6367;52.508;13.284;2023-01-04T06:38:52;3.60;;;3.27;;
12603;SDS011;6367;52.508;13.284;2023-01-04T06:41:20;5.27;;;3.87;;
12603;SDS011;6367;52.508;13.284;2023-01-04T06:43:46;4.00;;;3.57;;
12603;SDS011;6367;52.508;13.284;2023-01-04T06:46:11;4.57;;;3.30;;
12603;SDS011;6367;52.508;13.284;2023-01-04T06:48:37;6.87;;;3.70;;
12603;SDS011;6367;52.508;13.284;2023-01-04T06:51:03;4.00;;;3.70;;
12603;SDS011;6367;52.508;13.284;2023-01-04T06:53:28;3.37;;;3.00;;
12603;SDS011;6367;52.508;13.284;2023-01-04T06:55:54;6.00;;;3.67;;
12603;SDS011;6367;52.508;13.284;2023-01-04T06:58:20;4.13;;;3.00;;
12603;SDS011;6367;52.508;13.284;2023-01-04T07:00:45;4.70;;;3.30;;
12603;SDS011;6367;52.508;13.284;2023-01-04T07:03:11;7.67;;;3.10;;
12603;SDS011;6367;52.508;13.284;2023-01-04T07:05:37;7.13;;;3.70;;
12603;SDS011;6367;52.508;13.284;2023-01-04T07:08:03;5.73;;;3.07;;
12603;SDS011;6367;52.508;13.284;2023-01-04T07:10:29;7.40;;;3.30;;
12603;SDS011;6367;52.508;13.284;2023-01-04T07:12:55;5.70;;;2.73;;
12603;SDS011;6367;52.508;13.284;2023-01-04T07:15:21;6.93;;;2.37;;
12603;SDS011;6367;52.508;13.284;2023-01-04T07:17:47;3.10;;;2.73;;
12603;SDS011;6367;52.508;13.284;2023-01-04T07:20:13;4.57;;;2.90;;
12603;SDS011;6367;52.508;13.284;2023-01-04T07:22:39;4.83;;;3.10;;
12603;SDS011;6367;52.508;13.284;2023-01-04T07:25:05;8.60;;;3.07;;
12603;SDS011;6367;52.508;13.284;2023-01-04T07:27:30;4.47;;;2.90;;
12603;SDS011;6367;52.508;13.284;2023-01-04T07:29:56;4.30;;;2.67;;
12603;SDS011;6367;52.508;13.284;2023-01-04T07:32:22;5.10;;;2.60;;
12603;SDS011;6367;52.508;13.284;2023-01-04T07:34:47;3.20;;;2.27;;
12603;SDS011;6367;52.508;13.284;2023-01-04T07:37:13;2.33;;;2.03;;
12603;SDS011;6367;52.508;13.284;2023-01-04T07:39:40;3.83;;;2.67;;
12603;SDS011;6367;52.508;13.284;2023-01-04T07:42:06;3.60;;;2.50;;
12603;SDS011;6367;52.508;13.284;2023-01-04T07:44:32;4.00;;;2.53;;
12603;SDS011;6367;52.508;13.284;2023-01-04T07:46:58;3.63;;;2.37;;
12603;SDS011;6367;52.508;13.284;2023-01-04T07:49:23;3.20;;;2.70;;
12603;SDS011;6367;52.508;13.284;2023-01-04T07:51:49;3.60;;;2.03;;
12603;SDS011;6367;52.508;13.284;2023-01-04T07:54:15;3.50;;;2.80;;
12603;SDS011;6367;52.508;13.284;2023-01-04T07:56:43;5.83;;;2.63;;
12603;SDS011;6367;52.508;13.284;2023-01-04T07:59:10;4.70;;;1.70;;
12603;SDS011;6367;52.508;13.284;2023-01-04T08:01:37;4.30;;;2.60;;
12603;SDS011;6367;52.508;13.284;2023-01-04T08:04:04;4.10;;;1.90;;
12603;SDS011;6367;52.508;13.284;2023-01-04T08:06:30;4.13;;;2.70;;
12603;SDS011;6367;52.508;13.284;2023-01-04T08:08:57;4.20;;;2.07;;
12603;SDS011;6367;52.508;13.284;2023-01-04T08:11:23;3.00;;;2.17;;
12603;SDS011;6367;52.508;13.284;2023-01-04T08:13:49;4.80;;;2.20;;
12603;SDS011;6367;52.508;13.284;2023-01-04T08:16:29;7.40;;;2.57;;
12603;SDS011;6367;52.508;13.284;2023-01-04T08:19:01;4.73;;;2.73;;
12603;SDS011;6367;52.508;13.284;2023-01-04T08:21:29;3.47;;;2.00;;
12603;SDS011;6367;52.508;13.284;2023-01-04T08:23:56;3.40;;;2.37;;
12603;SDS011;6367;52.508;13.284;2023-01-04T08:26:22;3.40;;;2.53;;
12603;SDS011;6367;52.508;13.284;2023-01-04T08:28:49;5.93;;;2.77;;
12603;SDS011;6367;52.508;13.284;2023-01-04T08:31:16;3.00;;;1.90;;
12603;SDS011;6367;52.508;13.284;2023-01-04T08:33:46;2.50;;;2.00;;
12603;SDS011;6367;52.508;13.284;2023-01-04T08:36:16;4.43;;;2.13;;
12603;SDS011;6367;52.508;13.284;2023-01-04T08:38:50;4.47;;;2.90;;
12603;SDS011;6367;52.508;13.284;2023-01-04T08:41:18;2.77;;;2.40;;
12603;SDS011;6367;52.508;13.284;2023-01-04T08:43:44;6.33;;;2.27;;
12603;SDS011;6367;52.508;13.284;2023-01-04T08:46:10;4.80;;;2.77;;
12603;SDS011;6367;52.508;13.284;2023-01-04T08:48:37;3.30;;;2.00;;
12603;SDS011;6367;52.508;13.284;2023-01-04T08:51:05;3.07;;;2.27;;
12603;SDS011;6367;52.508;13.284;2023-01-04T08:53:35;3.07;;;2.60;;
12603;SDS011;6367;52.508;13.284;2023-01-04T08:56:01;4.07;;;2.50;;
12603;SDS011;6367;52.508;13.284;2023-01-04T08:58:27;4.20;;;3.03;;
12603;SDS011;6367;52.508;13.284;2023-01-04T09:01:01;5.30;;;2.70;;
12603;SDS011;6367;52.508;13.284;2023-01-04T09:03:30;5.03;;;2.87;;
12603;SDS011;6367;52.508;13.284;2023-01-04T09:08:30;3.77;;;3.20;;
12603;SDS011;6367;52.508;13.284;2023-01-04T09:10:57;5.13;;;2.97;;
12603;SDS011;6367;52.508;13.284;2023-01-04T09:13:23;4.60;;;2.80;;
12603;SDS011;6367;52.508;13.284;2023-01-04T09:15:48;4.33;;;3.70;;
12603;SDS011;6367;52.508;13.284;2023-01-04T09:18:14;6.70;;;3.27;;
12603;SDS011;6367;52.508;13.284;2023-01-04T09:20:39;6.17;;;3.50;;
12603;SDS011;6367;52.508;13.284;2023-01-04T09:23:05;3.97;;;2.53;;
12603;SDS011;6367;52.508;13.284;2023-01-04T09:25:31;6.43;;;3.90;;
12603;SDS011;6367;52.508;13.284;2023-01-04T09:27:56;6.90;;;3.50;;
12603;SDS011;6367;52.508;13.284;2023-01-04T09:30:22;7.30;;;3.37;;
12603;SDS011;6367;52.508;13.284;2023-01-04T09:32:48;5.73;;;2.90;;
12603;SDS011;6367;52.508;13.284;2023-01-04T09:35:13;3.47;;;2.83;;
12603;SDS011;6367;52.508;13.284;2023-01-04T09:37:39;5.70;;;3.07;;
12603;SDS011;6367;52.508;13.284;2023-01-04T09:40:05;7.97;;;2.93;;
12603;SDS011;6367;52.508;13.284;2023-01-04T09:42:33;3.63;;;3.33;;
12603;SDS011;6367;52.508;13.284;2023-01-04T09:45:08;4.20;;;3.07;;
12603;SDS011;6367;52.508;13.284;2023-01-04T09:47:49;3.73;;;3.10;;
12603;SDS011;6367;52.508;13.284;2023-01-04T09:56:07;4.83;;;4.13;;
12603;SDS011;6367;52.508;13.284;2023-01-04T09:58:40;5.20;;;3.00;;
12603;SDS011;6367;52.508;13.284;2023-01-04T10:01:09;5.23;;;3.40;;
12603;SDS011;6367;52.508;13.284;2023-01-04T10:03:41;4.47;;;2.70;;
12603;SDS011;6367;52.508;13.284;2023-01-04T10:06:17;4.77;;;3.37;;
12603;SDS011;6367;52.508;13.284;2023-01-04T10:08:44;5.40;;;3.70;;
12603;SDS011;6367;52.508;13.284;2023-01-04T10:14:03;6.20;;;3.60;;
12603;SDS011;6367;52.508;13.284;2023-01-04T10:21:43;3.97;;;2.93;;
12603;SDS011;6367;52.508;13.284;2023-01-04T10:24:20;4.57;;;3.70;;
12603;SDS011;6367;52.508;13.284;2023-01-04T10:26:58;5.37;;;3.73;;
12603;SDS011;6367;52.508;13.284;2023-01-04T10:29:38;4.80;;;3.80;;
12603;SDS011;6367;52.508;13.284;2023-01-04T10:32:23;3.70;;;2.70;;
12603;SDS011;6367;52.508;13.284;2023-01-04T10:34:56;3.50;;;3.20;;
12603;SDS011;6367;52.508;13.284;2023-01-04T10:37:32;5.80;;;3.27;;
12603;SDS011;6367;52.508;13.284;2023-01-04T10:40:00;5.20;;;3.70;;
12603;SDS011;6367;52.508;13.284;2023-01-04T10:50:21;3.07;;;2.77;;
12603;SDS011;6367;52.508;13.284;2023-01-04T10:52:50;3.93;;;2.87;;
12603;SDS011;6367;52.508;13.284;2023-01-04T11:01:03;6.27;;;4.03;;
12603;SDS011;6367;52.508;13.284;2023-01-04T11:03:56;3.67;;;3.37;;
12603;SDS011;6367;52.508;13.284;2023-01-04T11:06:30;4.10;;;3.43;;
12603;SDS011;6367;52.508;13.284;2023-01-04T11:09:10;3.77;;;2.93;;
12603;SDS011;6367;52.508;13.284;2023-01-04T11:11:43;3.30;;;2.50;;
12603;SDS011;6367;52.508;13.284;2023-01-04T11:14:10;4.80;;;3.07;;
12603;SDS011;6367;52.508;13.284;2023-01-04T11:16:41;4.73;;;2.63;;
12603;SDS011;6367;52.508;13.284;2023-01-04T11:19:10;4.07;;;3.50;;
12603;SDS011;6367;52.508;13.284;2023-01-04T11:21:39;4.83;;;3.03;;
12603;SDS011;6367;52.508;13.284;2023-01-04T11:24:27;4.80;;;3.07;;
12603;SDS011;6367;52.508;13.284;2023-01-04T11:26:55;3.03;;;2.73;;
12603;SDS011;6367;52.508;13.284;2023-01-04T11:32:13;2.80;;;2.60;;
12603;SDS011;6367;52.508;13.284;2023-01-04T11:34:58;6.23;;;3.33;;
12603;SDS011;6367;52.508;13.284;2023-01-04T11:37:28;3.00;;;2.70;;
12603;SDS011;6367;52.508;13.284;2023-01-04T11:42:45;5.87;;;3.07;;
12603;SDS011;6367;52.508;13.284;2023-01-04T11:45:26;3.60;;;2.60;;
12603;SDS011;6367;52.508;13.284;2023-01-04T11:47:56;2.70;;;2.50;;
12603;SDS011;6367;52.508;13.284;2023-01-04T11:50:38;3.17;;;2.87;;
12603;SDS011;6367;52.508;13.284;2023-01-04T11:59:32;4.50;;;2.47;;
12603;SDS011;6367;52.508;13.284;2023-01-04T12:01:34;2.33;;;2.13;;
12603;SDS011;6367;52.508;13.284;2023-01-04T12:04:02;7.23;;;2.97;;
12603;SDS011;6367;52.508;13.284;2023-01-04T12:09:04;2.77;;;2.53;;
12603;SDS011;6367;52.508;13.284;2023-01-04T12:11:36;3.70;;;2.53;;
12603;SDS011;6367;52.508;13.284;2023-01-04T12:14:13;2.90;;;2.43;;
12603;SDS011;6367;52.508;13.284;2023-01-04T12:19:47;2.90;;;2.33;;
12603;SDS011;6367;52.508;13.284;2023-01-04T12:24:57;4.97;;;2.90;;
12603;SDS011;6367;52.508;13.284;2023-01-04T12:27:23;2.60;;;2.23;;
12603;SDS011;6367;52.508;13.284;2023-01-04T12:29:57;3.37;;;2.67;;
12603;SDS011;6367;52.508;13.284;2023-01-04T12:34:50;3.60;;;2.87;;
12603;SDS011;6367;52.508;13.284;2023-01-04T12:45:44;4.37;;;2.27;;
12603;SDS011;6367;52.508;13.284;2023-01-04T12:51:24;4.10;;;2.53;;
12603;SDS011;6367;52.508;13.284;2023-01-04T12:53:55;2.73;;;2.27;;
12603;SDS011;6367;52.508;13.284;2023-01-04T12:57:06;6.13;;;3.10;;
12603;SDS011;6367;52.508;13.284;2023-01-04T13:02:41;2.60;;;2.30;;
12603;SDS011;6367;52.508;13.284;2023-01-04T13:13:01;2.53;;;2.33;;
12603;SDS011;6367;52.508;13.284;2023-01-04T13:21:10;2.70;;;2.50;;
12603;SDS011;6367;52.508;13.284;2023-01-04T13:23:54;2.30;;;2.20;;
12603;SDS011;6367;52.508;13.284;2023-01-04T13:26:30;3.43;;;2.77;;
12603;SDS011;6367;52.508;13.284;2023-01-04T13:31:50;2.80;;;2.60;;
12603;SDS011;6367;52.508;13.284;2023-01-04T13:34:30;4.47;;;2.67;;
12603;SDS011;6367;52.508;13.284;2023-01-04T13:39:40;4.60;;;2.73;;
12603;SDS011;6367;52.508;13.284;2023-01-04T13:42:22;3.37;;;3.03;;
12603;SDS011;6367;52.508;13.284;2023-01-04T13:45:01;4.90;;;2.90;;
12603;SDS011;6367;52.508;13.284;2023-01-04T13:47:41;2.90;;;2.70;;
12603;SDS011;6367;52.508;13.284;2023-01-04T13:52:55;3.13;;;2.40;;
12603;SDS011;6367;52.508;13.284;2023-01-04T13:55:22;2.50;;;2.07;;
12603;SDS011;6367;52.508;13.284;2023-01-04T13:58:00;2.73;;;2.53;;
12603;SDS011;6367;52.508;13.284;2023-01-04T14:00:29;3.17;;;2.87;;
12603;SDS011;6367;52.508;13.284;2023-01-04T14:05:35;4.03;;;2.70;;
12603;SDS011;6367;52.508;13.284;2023-01-04T14:08:01;3.90;;;2.60;;
12603;SDS011;6367;52.508;13.284;2023-01-04T14:10:33;3.27;;;2.80;;
12603;SDS011;6367;52.508;13.284;2023-01-04T14:13:01;4.87;;;2.87;;
12603;SDS011;6367;52.508;13.284;2023-01-04T14:15:27;3.43;;;2.70;;
12603;SDS011;6367;52.508;13.284;2023-01-04T14:17:54;2.43;;;2.20;;
12603;SDS011;6367;52.508;13.284;2023-01-04T14:28:16;2.50;;;2.30;;
12603;SDS011;6367;52.508;13.284;2023-01-04T14:30:46;2.03;;;1.80;;
12603;SDS011;6367;52.508;13.284;2023-01-04T14:35:41;3.93;;;2.50;;
12603;SDS011;6367;52.508;13.284;2023-01-04T14:38:12;1.87;;;1.77;;
12603;SDS011;6367;52.508;13.284;2023-01-04T14:40:41;2.50;;;2.13;;
12603;SDS011;6367;52.508;13.284;2023-01-04T14:46:00;3.03;;;2.20;;
12603;SDS011;6367;52.508;13.284;2023-01-04T14:48:29;2.63;;;2.10;;
12603;SDS011;6367;52.508;13.284;2023-01-04T14:50:55;2.53;;;2.20;;
12603;SDS011;6367;52.508;13.284;2023-01-04T14:53:23;2.87;;;2.20;;
12603;SDS011;6367;52.508;13.284;2023-01-04T14:55:49;2.60;;;1.87;;
12603;SDS011;6367;52.508;13.284;2023-01-04T14:58:14;2.90;;;2.50;;
12603;SDS011;6367;52.508;13.284;2023-01-04T15:00:40;4.17;;;2.10;;
12603;SDS011;6367;52.508;13.284;2023-01-04T15:03:05;3.00;;;2.23;;
12603;SDS011;6367;52.508;13.284;2023-01-04T15:05:33;1.97;;;1.83;;
12603;SDS011;6367;52.508;13.284;2023-01-04T15:07:59;2.53;;;2.33;;
12603;SDS011;6367;52.508;13.284;2023-01-04T15:10:26;2.30;;;2.10;;
12603;SDS011;6367;52.508;13.284;2023-01-04T15:12:53;2.20;;;2.00;;
12603;SDS011;6367;52.508;13.284;2023-01-04T15:15:21;3.77;;;1.80;;
12603;SDS011;6367;52.508;13.284;2023-01-04T15:17:47;2.67;;;1.80;;
12603;SDS011;6367;52.508;13.284;2023-01-04T15:20:13;2.30;;;2.03;;
12603;SDS011;6367;52.508;13.284;2023-01-04T15:22:39;2.00;;;1.80;;
12603;SDS011;6367;52.508;13.284;2023-01-04T15:25:06;3.10;;;2.00;;
12603;SDS011;6367;52.508;13.284;2023-01-04T15:27:32;2.70;;;1.63;;
12603;SDS011;6367;52.508;13.284;2023-01-04T15:29:58;2.43;;;1.80;;
12603;SDS011;6367;52.508;13.284;2023-01-04T15:32:24;2.27;;;1.60;;
12603;SDS011;6367;52.508;13.284;2023-01-04T15:34:49;3.30;;;2.00;;
12603;SDS011;6367;52.508;13.284;2023-01-04T15:37:15;2.83;;;1.90;;
12603;SDS011;6367;52.508;13.284;2023-01-04T15:39:41;1.77;;;1.47;;
12603;SDS011;6367;52.508;13.284;2023-01-04T15:42:10;2.17;;;1.50;;
12603;SDS011;6367;52.508;13.284;2023-01-04T15:44:55;1.40;;;1.30;;
12603;SDS011;6367;52.508;13.284;2023-01-04T15:47:20;2.40;;;1.70;;
12603;SDS011;6367;52.508;13.284;2023-01-04T15:49:47;3.67;;;1.50;;
12603;SDS011;6367;52.508;13.284;2023-01-04T15:52:13;1.93;;;1.67;;
12603;SDS011;6367;52.508;13.284;2023-01-04T15:54:39;2.93;;;2.23;;
12603;SDS011;6367;52.508;13.284;2023-01-04T15:57:05;1.60;;;1.50;;
12603;SDS011;6367;52.508;13.284;2023-01-04T15:59:31;2.60;;;1.83;;
12603;SDS011;6367;52.508;13.284;2023-01-04T16:01:57;3.50;;;2.10;;
12603;SDS011;6367;52.508;13.284;2023-01-04T16:04:22;1.70;;;1.60;;
12603;SDS011;6367;52.508;13.284;2023-01-04T16:06:48;3.40;;;1.93;;
12603;SDS011;6367;52.508;13.284;2023-01-04T16:09:14;1.70;;;1.60;;
12603;SDS011;6367;52.508;13.284;2023-01-04T16:11:40;2.90;;;1.63;;
12603;SDS011;6367;52.508;13.284;2023-01-04T16:14:25;3.23;;;1.93;;
12603;SDS011;6367;52.508;13.284;2023-01-04T16:16:51;2.13;;;1.40;;
12603;SDS011;6367;52.508;13.284;2023-01-04T16:19:17;1.63;;;1.53;;
12603;SDS011;6367;52.508;13.284;2023-01-04T16:21:43;1.83;;;1.60;;
12603;SDS011;6367;52.508;13.284;2023-01-04T16:24:09;1.37;;;1.27;;
12603;SDS011;6367;52.508;13.284;2023-01-04T16:26:35;2.03;;;1.60;;
12603;SDS011;6367;52.508;13.284;2023-01-04T16:29:01;2.30;;;1.27;;
12603;SDS011;6367;52.508;13.284;2023-01-04T16:31:31;2.20;;;1.50;;
12603;SDS011;6367;52.508;13.284;2023-01-04T16:33:57;1.60;;;1.50;;
12603;SDS011;6367;52.508;13.284;2023-01-04T16:36:23;1.30;;;1.20;;
12603;SDS011;6367;52.508;13.284;2023-01-04T16:38:49;2.60;;;1.80;;
12603;SDS011;6367;52.508;13.284;2023-01-04T16:41:15;1.40;;;1.30;;
12603;SDS011;6367;52.508;13.284;2023-01-04T16:43:43;1.60;;;1.50;;
12603;SDS011;6367;52.508;13.284;2023-01-04T16:46:15;2.33;;;1.60;;
12603;SDS011;6367;52.508;13.284;2023-01-04T16:48:43;1.67;;;1.57;;
12603;SDS011;6367;52.508;13.284;2023-01-04T16:51:10;2.43;;;1.40;;
12603;SDS011;6367;52.508;13.284;2023-01-04T16:53:36;2.50;;;1.03;;
12603;SDS011;6367;52.508;13.284;2023-01-04T16:56:03;2.70;;;1.63;;
12603;SDS011;6367;52.508;13.284;2023-01-04T16:58:29;1.30;;;1.20;;
12603;SDS011;6367;52.508;13.284;2023-01-04T17:00:55;1.37;;;1.27;;
12603;SDS011;6367;52.508;13.284;2023-01-04T17:03:29;1.50;;;1.40;;
12603;SDS011;6367;52.508;13.284;2023-01-04T17:05:56;1.50;;;1.27;;
12603;SDS011;6367;52.508;13.284;2023-01-04T17:08:21;1.43;;;1.30;;
12603;SDS011;6367;52.508;13.284;2023-01-04T17:10:47;1.77;;;1.20;;
12603;SDS011;6367;52.508;13.284;2023-01-04T17:13:12;1.90;;;1.80;;
12603;SDS011;6367;52.508;13.284;2023-01-04T17:15:38;2.67;;;1.80;;